SIA722 WSSS-VTBS
Flight info
| Callsign | SIA722 |
|---|---|
| Flight time | N/A |
| Altitude | 40000 |
| Route | VMR6A VMR B469 VPK M751 GUNBO/N0478F430 M751 VKB M644 ALUMO Y12 ALEMI TUMGA1C |
| Aircraft | A359/H-SDE2E3GHIJ1J3J4J5LM1ORWXY/LB1D1 |
Departure
| Time | N/A |
|---|---|
| Airport | Singapore Changi Airport (WSSS) |
Arrival
| Time | 2026-05-01 07:35 |
|---|---|
| Airport | Suvarnabhumi Airport (VTBS) |
| Time | Latitude | Longitude | Altitude | Speed | Heading |
|---|---|---|---|---|---|
| 2026-05-01 07:23 | 13.38138 | 101.08746 | 16760 ft | 355 kts | 294° |
| 2026-05-01 07:23 | 13.41190 | 101.04918 | 15552 ft | 357 kts | 327° |
| 2026-05-01 07:24 | 13.43509 | 101.03909 | 14541 ft | 365 kts | 342° |
| 2026-05-01 07:24 | 13.45953 | 101.03219 | 13194 ft | 366 kts | 345° |
| 2026-05-01 07:24 | 13.48427 | 101.02571 | 11933 ft | 366 kts | 345° |
| 2026-05-01 07:24 | 13.50820 | 101.01939 | 11466 ft | 341 kts | 345° |
| 2026-05-01 07:25 | 13.53037 | 101.01346 | 11224 ft | 317 kts | 345° |
| 2026-05-01 07:25 | 13.55120 | 101.00784 | 11124 ft | 303 kts | 345° |
| 2026-05-01 07:25 | 13.57118 | 101.00242 | 10992 ft | 292 kts | 345° |
| 2026-05-01 07:25 | 13.59058 | 100.99711 | 10780 ft | 286 kts | 345° |
| 2026-05-01 07:26 | 13.60983 | 100.99183 | 10439 ft | 285 kts | 345° |
| 2026-05-01 07:26 | 13.62901 | 100.98659 | 10089 ft | 285 kts | 345° |
| 2026-05-01 07:26 | 13.64827 | 100.98133 | 9767 ft | 293 kts | 345° |
| 2026-05-01 07:26 | 13.66149 | 100.97770 | 9667 ft | 301 kts | 345° |
| 2026-05-01 07:27 | 13.68175 | 100.97216 | 9437 ft | 299 kts | 345° |
| 2026-05-01 07:27 | 13.70876 | 100.96477 | 8721 ft | 301 kts | 345° |
| 2026-05-01 07:27 | 13.72207 | 100.96102 | 8440 ft | 299 kts | 343° |
| 2026-05-01 07:27 | 13.74167 | 100.95430 | 7994 ft | 295 kts | 339° |
| 2026-05-01 07:28 | 13.76714 | 100.94459 | 7351 ft | 292 kts | 339° |
| 2026-05-01 07:28 | 13.78644 | 100.93716 | 6862 ft | 291 kts | 339° |
| 2026-05-01 07:28 | 13.79899 | 100.93232 | 6557 ft | 290 kts | 339° |
| 2026-05-01 07:28 | 13.81778 | 100.92509 | 6093 ft | 288 kts | 339° |
| 2026-05-01 07:29 | 13.84220 | 100.91493 | 5424 ft | 285 kts | 331° |
| 2026-05-01 07:29 | 13.85839 | 100.90337 | 4978 ft | 282 kts | 321° |
| 2026-05-01 07:29 | 13.86833 | 100.89500 | 4839 ft | 275 kts | 320° |
| 2026-05-01 07:29 | 13.88262 | 100.88266 | 4669 ft | 261 kts | 319° |
| 2026-05-01 07:30 | 13.89598 | 100.87107 | 4404 ft | 242 kts | 319° |
| 2026-05-01 07:30 | 13.90706 | 100.85834 | 3997 ft | 240 kts | 296° |
| 2026-05-01 07:30 | 13.91047 | 100.84201 | 3723 ft | 232 kts | 261° |
| 2026-05-01 07:30 | 13.90397 | 100.82751 | 3483 ft | 224 kts | 228° |
| 2026-05-01 07:31 | 13.89230 | 100.81702 | 3238 ft | 224 kts | 213° |
| 2026-05-01 07:31 | 13.84828 | 100.80263 | 2482 ft | 219 kts | 194° |
| 2026-05-01 07:32 | 13.81957 | 100.79492 | 2005 ft | 206 kts | 195° |
| 2026-05-01 07:32 | 13.80603 | 100.79125 | 1788 ft | 196 kts | 195° |
| 2026-05-01 07:33 | 13.78188 | 100.78483 | 1613 ft | 161 kts | 196° |
| 2026-05-01 07:33 | 13.77117 | 100.78201 | 1605 ft | 158 kts | 196° |
| 2026-05-01 07:33 | 13.74988 | 100.77637 | 1219 ft | 160 kts | 197° |
| 2026-05-01 07:34 | 13.73923 | 100.77357 | 1002 ft | 155 kts | 197° |
| 2026-05-01 07:34 | 13.71893 | 100.76820 | 599 ft | 149 kts | 197° |
| 2026-05-01 07:34 | 13.70896 | 100.76557 | 399 ft | 146 kts | 197° |
| 2026-05-01 07:35 | 13.69926 | 100.76301 | 215 ft | 141 kts | 197° |
| 2026-05-01 07:35 | 13.68989 | 100.76057 | 40 ft | 136 kts | 196° |
| 2026-05-01 07:35 | 13.68120 | 100.75829 | 19 ft | 117 kts | 194° |
| 2026-05-01 07:35 | 13.67644 | 100.75697 | 17 ft | 28 kts | 205° |
| 2026-05-01 07:36 | 13.67509 | 100.75597 | 19 ft | 21 kts | 223° |
| 2026-05-01 07:36 | 13.67453 | 100.75517 | 21 ft | 12 kts | 266° |
| 2026-05-01 07:36 | 13.67490 | 100.75478 | 19 ft | 7 kts | 354° |
| 2026-05-01 07:36 | 13.67539 | 100.75485 | 19 ft | 8 kts | 12° |
| 2026-05-01 07:37 | 13.67676 | 100.75521 | 19 ft | 12 kts | 14° |
| 2026-05-01 07:37 | 13.67767 | 100.75545 | 19 ft | 15 kts | 14° |
| 2026-05-01 07:37 | 13.67872 | 100.75572 | 19 ft | 17 kts | 14° |
| 2026-05-01 07:38 | 13.67968 | 100.75597 | 19 ft | 10 kts | 14° |
| 2026-05-01 07:38 | 13.67975 | 100.75599 | 19 ft | 0 kts | 14° |
| 2026-05-01 07:41 | 13.67912 | 100.75570 | 21 ft | 16 kts | 56° |